createdAt,value
2022-08-19T00:03:49.039Z,87.4
2022-08-19T00:08:53.532Z,88.5
2022-08-19T00:13:57.083Z,87.3
2022-08-19T00:19:01.629Z,86.7
2022-08-19T00:24:06.141Z,86.6
2022-08-19T00:29:09.723Z,87.6
2022-08-19T00:34:14.341Z,90.3
2022-08-19T00:39:18.814Z,90.4
2022-08-19T00:44:26.831Z,90.7
2022-08-19T00:49:26.876Z,90.4
2022-08-19T00:54:31.417Z,89.2
2022-08-19T00:59:58.740Z,89.5
2022-08-19T01:04:39.489Z,88.4
2022-08-19T01:09:43.064Z,87.7
2022-08-19T01:14:47.606Z,88.4
2022-08-19T01:19:52.136Z,89
2022-08-19T01:24:56.642Z,88.4
2022-08-19T01:30:00.192Z,87.9
2022-08-19T01:35:04.719Z,88.7
2022-08-19T01:40:09.569Z,88.8
2022-08-19T01:45:12.811Z,92.1
2022-08-19T01:50:17.333Z,90.7
2022-08-19T01:55:21.868Z,90.8
2022-08-19T02:00:25.383Z,90.8
2022-08-19T02:05:29.981Z,90.8
2022-08-19T02:10:34.463Z,90.9
2022-08-19T02:15:38.042Z,91.7
2022-08-19T02:20:42.573Z,91.6
2022-08-19T02:25:47.111Z,91.5
2022-08-19T02:30:51.602Z,91.7
2022-08-19T02:35:55.147Z,92
2022-08-19T02:40:59.723Z,91.8
2022-08-19T02:46:04.253Z,91.7
2022-08-19T02:51:07.800Z,91.8
2022-08-19T02:56:12.448Z,91.8
2022-08-19T03:01:16.949Z,91.8
2022-08-19T03:06:20.419Z,92
2022-08-19T03:11:24.979Z,92.1
2022-08-19T03:16:29.454Z,92.5
2022-08-19T03:21:33.030Z,93.1
2022-08-19T03:26:37.573Z,93.4
2022-08-19T03:31:51.097Z,94.9
2022-08-19T03:36:46.636Z,95.1
2022-08-19T03:41:50.194Z,95
2022-08-19T03:46:54.703Z,94.4
2022-08-19T03:51:59.238Z,94.1
2022-08-19T03:57:02.817Z,94.1
2022-08-19T04:02:07.294Z,94.6
2022-08-19T04:07:11.831Z,94.8
2022-08-19T04:12:15.410Z,94.9
2022-08-19T04:17:19.944Z,94.9
2022-08-19T04:22:24.491Z,95
2022-08-19T04:27:27.991Z,95
2022-08-19T04:32:32.555Z,95.1
2022-08-19T04:37:37.068Z,95.7
2022-08-19T04:42:41.599Z,95.9
2022-08-19T04:47:49.382Z,95.6
2022-08-19T04:52:49.722Z,95.5
2022-08-19T04:57:54.218Z,95.6
2022-08-19T05:02:57.772Z,96.1
2022-08-19T05:08:02.275Z,95.9
2022-08-19T05:13:06.838Z,96
2022-08-19T05:18:10.444Z,96
2022-08-19T05:23:18.538Z,95.9
2022-08-19T05:28:18.495Z,95.4
2022-08-19T05:33:23.030Z,95.3
2022-08-19T05:38:27.547Z,95.1
2022-08-19T05:43:31.089Z,94.5
2022-08-19T05:48:35.610Z,93.9
2022-08-19T05:53:40.166Z,94.6
2022-08-19T05:58:43.692Z,92.8
2022-08-19T06:03:48.239Z,93.2
2022-08-19T06:08:52.784Z,94.7
2022-08-19T06:13:59.649Z,93.8
2022-08-19T06:19:00.852Z,94.1
2022-08-19T06:24:05.382Z,93
2022-08-19T06:29:09.989Z,93.1
2022-08-19T06:34:13.492Z,91.1
2022-08-19T06:39:17.995Z,91.2
2022-08-19T06:44:22.588Z,91.5
2022-08-19T06:49:26.082Z,90.9
2022-08-19T06:54:31.066Z,89.7
2022-08-19T06:59:35.190Z,88
2022-08-19T07:04:38.718Z,84.3
2022-08-19T07:09:43.266Z,84.4
2022-08-19T07:14:47.782Z,87.7
2022-08-19T07:19:51.316Z,85.3
2022-08-19T07:24:55.882Z,82.9
2022-08-19T07:30:00.411Z,82.7
2022-08-19T07:35:04.922Z,86.1
2022-08-19T07:40:08.582Z,82.4
2022-08-19T07:45:13.043Z,81
2022-08-19T07:50:17.567Z,75
2022-08-19T07:55:42.549Z,81
2022-08-19T08:00:25.819Z,76.8
2022-08-19T08:05:30.166Z,74.5
2022-08-19T08:10:33.727Z,76.8
2022-08-19T08:15:42.103Z,71.3
2022-08-19T08:20:42.803Z,75.7
2022-08-19T08:25:46.363Z,78.1
2022-08-19T08:30:50.959Z,74.2
2022-08-19T08:35:55.426Z,69.7
2022-08-19T08:40:59.956Z,69.5
2022-08-19T08:46:03.523Z,69.8
2022-08-19T08:51:08.070Z,72.1
2022-08-19T08:56:12.579Z,74.8
2022-08-19T09:01:16.173Z,73
2022-08-19T09:06:20.655Z,65.2
2022-08-19T09:11:42.880Z,64.8
2022-08-19T09:16:28.759Z,64.7
2022-08-19T09:21:34.354Z,62
2022-08-19T09:26:47.522Z,62.2
2022-08-19T09:31:41.379Z,62.5
2022-08-19T09:36:45.945Z,61.1
2022-08-19T09:41:49.499Z,58.3
2022-08-19T09:46:54.039Z,56.5
2022-08-19T09:51:58.593Z,59.9
2022-08-19T09:57:04.671Z,58.7
2022-08-19T10:02:11.037Z,59.6
2022-08-19T10:07:11.175Z,59.3
2022-08-19T10:12:14.756Z,62.2
2022-08-19T10:17:22.206Z,61.7
2022-08-19T10:22:23.842Z,61.8
2022-08-19T10:27:28.378Z,61.3
2022-08-19T10:32:34.391Z,63
2022-08-19T10:37:36.434Z,58.3
2022-08-19T10:42:40.969Z,59.5
2022-08-19T10:47:44.538Z,62.1
2022-08-19T10:52:50.636Z,58.4
2022-08-19T10:58:02.123Z,58.7
2022-08-19T11:02:57.190Z,61.4
2022-08-19T11:08:01.713Z,62.1
2022-08-19T11:13:06.231Z,60.6
2022-08-19T11:18:13.344Z,60
2022-08-19T11:23:14.360Z,62.1
2022-08-19T11:28:18.877Z,58.9
2022-08-19T11:33:23.393Z,55.3
2022-08-19T11:38:26.978Z,55.9
2022-08-19T11:43:35.498Z,55.9
2022-08-19T11:48:36.020Z,53.9
2022-08-19T11:53:39.615Z,51.5
2022-08-19T11:58:44.145Z,51.1
2022-08-19T12:03:48.796Z,50.5
2022-08-19T12:08:52.219Z,54.4
2022-08-19T12:13:56.774Z,55.3
2022-08-19T12:19:01.294Z,53.3
2022-08-19T12:24:04.868Z,53.3
2022-08-19T12:29:09.383Z,52.1
2022-08-19T12:34:13.946Z,53.8
2022-08-19T12:39:18.492Z,58.1
2022-08-19T12:44:31.868Z,54.9
2022-08-19T12:49:52.048Z,51.9
2022-08-19T12:54:31.090Z,54.8
2022-08-19T12:59:34.681Z,51
2022-08-19T13:04:39.180Z,52.3
2022-08-19T13:09:43.751Z,51.1
2022-08-19T13:14:47.293Z,54.5
2022-08-19T13:19:51.820Z,50.8
2022-08-19T13:24:56.378Z,50.3
2022-08-19T13:29:59.920Z,49.6
2022-08-19T13:35:04.482Z,50.2
2022-08-19T13:40:09.102Z,50.3
2022-08-19T13:45:13.515Z,49.2
2022-08-19T13:50:17.064Z,50.9
2022-08-19T13:55:24.879Z,52.1
2022-08-19T14:00:25.271Z,48.8
2022-08-19T14:05:29.730Z,50.6
2022-08-19T14:10:33.271Z,48.9
2022-08-19T14:15:37.840Z,50
2022-08-19T14:20:42.396Z,49.1
2022-08-19T14:25:46.900Z,52.2
2022-08-19T14:30:50.453Z,50.2
2022-08-19T14:35:59.547Z,49.3
2022-08-19T14:40:59.538Z,49.7
2022-08-19T14:46:03.173Z,51.1
2022-08-19T14:51:07.640Z,50.4
2022-08-19T14:56:12.185Z,48.5
2022-08-19T15:01:15.761Z,48.6
2022-08-19T15:06:20.265Z,50.8
2022-08-19T15:11:24.787Z,49.5
2022-08-19T15:16:28.337Z,49.9
2022-08-19T15:21:32.864Z,50
2022-08-19T15:26:37.411Z,48.8
2022-08-19T15:31:41.925Z,49.8
2022-08-19T15:36:45.488Z,48.7
2022-08-19T15:41:50.006Z,49.6
2022-08-19T15:46:54.577Z,50
2022-08-19T15:51:58.098Z,50.7
2022-08-19T15:57:02.642Z,51.6
2022-08-19T16:02:07.541Z,51.4
2022-08-19T16:07:10.734Z,51.8
2022-08-19T16:12:15.300Z,51.1
2022-08-19T16:17:19.803Z,50.6
2022-08-19T16:22:23.378Z,50.8
2022-08-19T16:27:27.925Z,51.4
2022-08-19T16:32:32.448Z,51.4
2022-08-19T16:37:37.016Z,51.3
2022-08-19T16:42:40.494Z,51.8
2022-08-19T16:47:45.076Z,51.4
2022-08-19T16:52:49.618Z,53.4
2022-08-19T16:57:53.313Z,54.4
2022-08-19T17:02:57.701Z,53.4
2022-08-19T17:08:02.208Z,55
2022-08-19T17:13:05.792Z,56.5
2022-08-19T17:18:10.286Z,57.3
2022-08-19T17:23:14.863Z,58.6
2022-08-19T17:28:18.385Z,59.2
2022-08-19T17:33:22.921Z,60.1
2022-08-19T17:38:27.546Z,61.3
2022-08-19T17:43:33.361Z,62.1
2022-08-19T17:48:35.537Z,62.4
2022-08-19T17:53:40.081Z,62.7
2022-08-19T17:58:45.094Z,63.3
2022-08-19T18:03:48.178Z,63.9
2022-08-19T18:08:51.695Z,64.2
2022-08-19T18:13:56.267Z,65.5
2022-08-19T18:19:00.787Z,66.3
2022-08-19T18:24:05.363Z,67.3
2022-08-19T18:29:08.856Z,68.1
2022-08-19T18:34:13.412Z,68.5
2022-08-19T18:39:17.957Z,69.2
2022-08-19T18:44:21.485Z,69.8
2022-08-19T18:49:26.046Z,70.3
2022-08-19T18:54:30.555Z,70.9
2022-08-19T18:59:34.142Z,71.5
2022-08-19T19:04:38.659Z,72
2022-08-19T19:09:43.187Z,72.3
2022-08-19T19:14:49.479Z,72.7
2022-08-19T19:19:51.266Z,73.3
2022-08-19T19:24:55.769Z,73.9
2022-08-19T19:30:00.328Z,74.4
2022-08-19T19:35:03.850Z,74.6
2022-08-19T19:40:08.436Z,75.1
2022-08-19T19:45:12.942Z,76
2022-08-19T19:50:16.551Z,75.8
2022-08-19T19:55:20.991Z,76.6
2022-08-19T20:00:25.587Z,76.8
2022-08-19T20:05:29.113Z,76.9
2022-08-19T20:10:33.639Z,77.2
2022-08-19T20:15:42.387Z,77.3
2022-08-19T20:20:41.685Z,77.1
2022-08-19T20:25:46.283Z,77.2
2022-08-19T20:30:50.793Z,77.3
2022-08-19T20:35:55.298Z,78
2022-08-19T20:40:58.843Z,77.8
2022-08-19T20:46:03.391Z,77.8
2022-08-19T20:51:07.908Z,77.7
2022-08-19T20:56:11.491Z,78.3
2022-08-19T21:01:16.034Z,79.1
2022-08-19T21:06:20.529Z,79.7
2022-08-19T21:11:24.082Z,80.5
2022-08-19T21:16:28.631Z,81.2
2022-08-19T21:21:33.202Z,82.1
2022-08-19T21:26:36.739Z,82.2
2022-08-19T21:31:41.277Z,82.6
2022-08-19T21:36:45.806Z,83.2
2022-08-19T21:41:50.287Z,84.5
2022-08-19T21:46:53.857Z,84.9
2022-08-19T21:51:58.364Z,84.9
2022-08-19T21:57:02.902Z,85.8
2022-08-19T22:02:19.510Z,86.4
2022-08-19T22:07:10.999Z,86.7
2022-08-19T22:12:15.522Z,87.2
2022-08-19T22:17:19.111Z,87.7
2022-08-19T22:22:23.611Z,88.1
2022-08-19T22:27:27.205Z,88.3
2022-08-19T22:32:31.722Z,88.8
2022-08-19T22:37:36.243Z,89.1
2022-08-19T22:42:39.774Z,89.6
2022-08-19T22:47:44.340Z,89.5
2022-08-19T22:52:51.840Z,89.9
2022-08-19T22:57:52.426Z,90.1
2022-08-19T23:02:56.925Z,90.6
2022-08-19T23:08:01.476Z,90.3
2022-08-19T23:13:05.039Z,90.2
2022-08-19T23:18:09.558Z,90.2
2022-08-19T23:23:14.085Z,90.5
2022-08-19T23:28:18.636Z,91.8
2022-08-19T23:33:22.196Z,92.9
2022-08-19T23:38:26.705Z,92.6
2022-08-19T23:43:31.239Z,91.7
2022-08-19T23:48:34.821Z,91.1
2022-08-19T23:53:39.332Z,91.8
2022-08-19T23:58:43.884Z,92.1
